DAAJ/DJG METAR and TAF weather

Enter ICAO airport designator
Station Type Date Time Source
DAAJ METAR 2020/09/20 10:00 UTC NOAA

DAAJ 201000Z 09008KT CAVOK 32/04 Q1021


Station Type Date Time Source
DAAJ Decoded METAR 2020/09/20 10:00 UTC NOAA

Djanet, Algeria (DAAJ) 24-33N 009-28E 1054M
Sep 20, 2020 - 06:00 AM EDT / 2020.09.20 1000 UTC
Wind: from the E (090 degrees) at 9 MPH (8 KT):0
Visibility: greater than 7 mile(s):0
Temperature: 89 F (32 C)
Dew Point: 39 F (4 C)
Relative Humidity: 17%
Pressure (altimeter): 30.15 in. Hg (1021 hPa)
ob: DAAJ 201000Z 09008KT CAVOK 32/04 Q1021
cycle: 10

Station Type Date Time Source
DAAJ TAF 2020/09/20 06:33 UTC NOAA

TAF DAAJ 200500Z 2006/2106 VRB02KT CAVOK
BECMG 2007/2010 08010KT

Example: see airport list